Terminal Aerodrome Forecast
Issued by NWS

Current Version | Previous Version | Graphics & Text | Print | Product List | Glossary On
Versions: 1 2 3 4 5 6 7 8 9 10 11 12 13 14 15 16 17 18 19 20 21
572
FTUS41 KILN 020524
TAFLCK
TAF
KLCK 020524Z 0206/0306 26008KT P6SM OVC035
     FM020800 26008KT P6SM OVC025
     FM021600 27012G18KT P6SM OVC035
     FM022300 28010KT P6SM BKN035=

USA.gov is the U.S. government's official web portal to all federal, state and local government web resources and services.